sensor_id;sensor_type;location;lat;lon;timestamp;temperature;humidity
18880;DHT22;9572;52.378;13.404;2023-11-21T00:00:17;9.10;99.90
18880;DHT22;9572;52.378;13.404;2023-11-21T00:02:44;9.20;99.90
18880;DHT22;9572;52.378;13.404;2023-11-21T00:05:13;9.10;99.90
18880;DHT22;9572;52.378;13.404;2023-11-21T00:07:47;9.20;99.90
18880;DHT22;9572;52.378;13.404;2023-11-21T00:10:14;9.10;99.90
18880;DHT22;9572;52.378;13.404;2023-11-21T00:12:43;9.10;99.90
18880;DHT22;9572;52.378;13.404;2023-11-21T00:15:16;9.00;99.90
18880;DHT22;9572;52.378;13.404;2023-11-21T00:17:44;9.00;99.90
18880;DHT22;9572;52.378;13.404;2023-11-21T00:20:12;9.10;99.90
18880;DHT22;9572;52.378;13.404;2023-11-21T00:22:40;9.10;99.90
18880;DHT22;9572;52.378;13.404;2023-11-21T00:25:07;9.10;99.90
18880;DHT22;9572;52.378;13.404;2023-11-21T00:27:34;9.10;99.90
18880;DHT22;9572;52.378;13.404;2023-11-21T00:30:02;9.10;99.90
18880;DHT22;9572;52.378;13.404;2023-11-21T00:32:35;9.10;99.90
18880;DHT22;9572;52.378;13.404;2023-11-21T00:35:03;9.10;99.90
18880;DHT22;9572;52.378;13.404;2023-11-21T00:37:31;9.10;99.90
18880;DHT22;9572;52.378;13.404;2023-11-21T00:39:59;9.10;99.90
18880;DHT22;9572;52.378;13.404;2023-11-21T00:42:30;9.10;99.90
18880;DHT22;9572;52.378;13.404;2023-11-21T00:44:59;9.10;99.90
18880;DHT22;9572;52.378;13.404;2023-11-21T00:47:26;8.90;99.90
18880;DHT22;9572;52.378;13.404;2023-11-21T00:49:55;8.90;99.90
18880;DHT22;9572;52.378;13.404;2023-11-21T00:52:22;8.80;99.90
18880;DHT22;9572;52.378;13.404;2023-11-21T00:54:52;8.80;99.90
18880;DHT22;9572;52.378;13.404;2023-11-21T00:57:20;8.70;99.90
18880;DHT22;9572;52.378;13.404;2023-11-21T00:59:47;8.60;99.90
18880;DHT22;9572;52.378;13.404;2023-11-21T01:02:14;8.50;99.90
18880;DHT22;9572;52.378;13.404;2023-11-21T01:04:41;8.50;99.90
18880;DHT22;9572;52.378;13.404;2023-11-21T01:07:10;8.40;99.90
18880;DHT22;9572;52.378;13.404;2023-11-21T01:09:37;8.30;99.90
18880;DHT22;9572;52.378;13.404;2023-11-21T01:12:05;8.20;99.90
18880;DHT22;9572;52.378;13.404;2023-11-21T01:14:33;8.20;99.90
18880;DHT22;9572;52.378;13.404;2023-11-21T01:17:03;8.00;99.90
18880;DHT22;9572;52.378;13.404;2023-11-21T01:19:31;7.80;99.90
18880;DHT22;9572;52.378;13.404;2023-11-21T01:21:58;7.80;99.90
18880;DHT22;9572;52.378;13.404;2023-11-21T01:24:27;7.80;99.90
18880;DHT22;9572;52.378;13.404;2023-11-21T01:26:55;7.70;99.90
18880;DHT22;9572;52.378;13.404;2023-11-21T01:29:22;7.60;99.90
18880;DHT22;9572;52.378;13.404;2023-11-21T01:31:49;7.50;99.90
18880;DHT22;9572;52.378;13.404;2023-11-21T01:34:17;7.30;99.90
18880;DHT22;9572;52.378;13.404;2023-11-21T01:36:45;7.30;99.90
18880;DHT22;9572;52.378;13.404;2023-11-21T01:39:13;7.30;99.90
18880;DHT22;9572;52.378;13.404;2023-11-21T01:41:43;7.30;99.90
18880;DHT22;9572;52.378;13.404;2023-11-21T01:44:11;7.30;99.90
18880;DHT22;9572;52.378;13.404;2023-11-21T01:46:40;7.30;99.90
18880;DHT22;9572;52.378;13.404;2023-11-21T01:49:09;7.30;99.90
18880;DHT22;9572;52.378;13.404;2023-11-21T01:51:38;7.30;99.90
18880;DHT22;9572;52.378;13.404;2023-11-21T01:54:06;7.20;99.90
18880;DHT22;9572;52.378;13.404;2023-11-21T01:56:33;7.30;99.90
18880;DHT22;9572;52.378;13.404;2023-11-21T01:59:03;7.30;99.90
18880;DHT22;9572;52.378;13.404;2023-11-21T02:01:32;7.10;99.90
18880;DHT22;9572;52.378;13.404;2023-11-21T02:04:00;7.00;99.90
18880;DHT22;9572;52.378;13.404;2023-11-21T02:06:27;7.00;99.90
18880;DHT22;9572;52.378;13.404;2023-11-21T02:08:56;6.90;99.90
18880;DHT22;9572;52.378;13.404;2023-11-21T02:11:25;6.90;99.90
18880;DHT22;9572;52.378;13.404;2023-11-21T02:13:53;6.80;99.90
18880;DHT22;9572;52.378;13.404;2023-11-21T02:16:22;6.70;99.90
18880;DHT22;9572;52.378;13.404;2023-11-21T02:18:51;6.70;99.90
18880;DHT22;9572;52.378;13.404;2023-11-21T02:21:18;6.60;99.90
18880;DHT22;9572;52.378;13.404;2023-11-21T02:23:48;6.60;99.90
18880;DHT22;9572;52.378;13.404;2023-11-21T02:26:14;6.70;99.90
18880;DHT22;9572;52.378;13.404;2023-11-21T02:28:42;6.60;99.90
18880;DHT22;9572;52.378;13.404;2023-11-21T02:31:09;6.60;99.90
18880;DHT22;9572;52.378;13.404;2023-11-21T02:33:38;6.60;99.90
18880;DHT22;9572;52.378;13.404;2023-11-21T02:36:05;6.60;99.90
18880;DHT22;9572;52.378;13.404;2023-11-21T02:38:32;6.60;99.90
18880;DHT22;9572;52.378;13.404;2023-11-21T02:41:01;6.60;99.90
18880;DHT22;9572;52.378;13.404;2023-11-21T02:43:29;6.60;99.90
18880;DHT22;9572;52.378;13.404;2023-11-21T02:45:56;6.60;99.90
18880;DHT22;9572;52.378;13.404;2023-11-21T02:48:23;6.60;99.90
18880;DHT22;9572;52.378;13.404;2023-11-21T02:50:51;6.60;99.90
18880;DHT22;9572;52.378;13.404;2023-11-21T02:53:20;6.60;99.90
18880;DHT22;9572;52.378;13.404;2023-11-21T02:55:48;6.60;99.90
18880;DHT22;9572;52.378;13.404;2023-11-21T02:58:17;6.60;99.90
18880;DHT22;9572;52.378;13.404;2023-11-21T03:00:45;6.60;99.90
18880;DHT22;9572;52.378;13.404;2023-11-21T03:03:12;6.50;99.90
18880;DHT22;9572;52.378;13.404;2023-11-21T03:05:40;6.40;99.90
18880;DHT22;9572;52.378;13.404;2023-11-21T03:08:07;6.40;99.90
18880;DHT22;9572;52.378;13.404;2023-11-21T03:10:34;6.40;99.90
18880;DHT22;9572;52.378;13.404;2023-11-21T03:13:02;6.40;99.90
18880;DHT22;9572;52.378;13.404;2023-11-21T03:15:31;6.40;99.90
18880;DHT22;9572;52.378;13.404;2023-11-21T03:17:58;6.40;99.90
18880;DHT22;9572;52.378;13.404;2023-11-21T03:20:25;6.40;99.90
18880;DHT22;9572;52.378;13.404;2023-11-21T03:22:53;6.40;99.90
18880;DHT22;9572;52.378;13.404;2023-11-21T03:25:20;6.40;99.90
18880;DHT22;9572;52.378;13.404;2023-11-21T03:27:49;6.30;99.90
18880;DHT22;9572;52.378;13.404;2023-11-21T03:30:16;6.30;99.90
18880;DHT22;9572;52.378;13.404;2023-11-21T03:32:45;6.40;99.90
18880;DHT22;9572;52.378;13.404;2023-11-21T03:35:12;6.30;99.90
18880;DHT22;9572;52.378;13.404;2023-11-21T03:37:40;6.40;99.90
18880;DHT22;9572;52.378;13.404;2023-11-21T03:40:09;6.40;99.90
18880;DHT22;9572;52.378;13.404;2023-11-21T03:42:36;6.40;99.90
18880;DHT22;9572;52.378;13.404;2023-11-21T03:45:03;6.20;99.90
18880;DHT22;9572;52.378;13.404;2023-11-21T03:47:30;6.20;99.90
18880;DHT22;9572;52.378;13.404;2023-11-21T03:49:58;6.10;99.90
18880;DHT22;9572;52.378;13.404;2023-11-21T03:52:26;6.10;99.90
18880;DHT22;9572;52.378;13.404;2023-11-21T03:54:54;6.00;99.90
18880;DHT22;9572;52.378;13.404;2023-11-21T03:57:21;6.10;99.90
18880;DHT22;9572;52.378;13.404;2023-11-21T03:59:48;6.10;99.90
18880;DHT22;9572;52.378;13.404;2023-11-21T04:02:15;6.10;99.90
18880;DHT22;9572;52.378;13.404;2023-11-21T04:04:43;6.10;99.90
18880;DHT22;9572;52.378;13.404;2023-11-21T04:07:11;6.10;99.90
18880;DHT22;9572;52.378;13.404;2023-11-21T04:09:39;6.10;99.90
18880;DHT22;9572;52.378;13.404;2023-11-21T04:12:07;6.10;99.90
18880;DHT22;9572;52.378;13.404;2023-11-21T04:14:35;6.10;99.90
18880;DHT22;9572;52.378;13.404;2023-11-21T04:17:02;6.00;99.90
18880;DHT22;9572;52.378;13.404;2023-11-21T04:19:30;5.90;99.90
18880;DHT22;9572;52.378;13.404;2023-11-21T04:21:56;5.90;99.90
18880;DHT22;9572;52.378;13.404;2023-11-21T04:24:25;5.90;99.90
18880;DHT22;9572;52.378;13.404;2023-11-21T04:26:52;5.90;99.90
18880;DHT22;9572;52.378;13.404;2023-11-21T04:29:21;6.00;99.90
18880;DHT22;9572;52.378;13.404;2023-11-21T04:31:48;5.90;99.90
18880;DHT22;9572;52.378;13.404;2023-11-21T04:34:15;6.00;99.90
18880;DHT22;9572;52.378;13.404;2023-11-21T04:36:43;6.00;99.90
18880;DHT22;9572;52.378;13.404;2023-11-21T04:39:10;5.90;99.90
18880;DHT22;9572;52.378;13.404;2023-11-21T04:41:38;5.90;99.90
18880;DHT22;9572;52.378;13.404;2023-11-21T04:44:06;5.90;99.90
18880;DHT22;9572;52.378;13.404;2023-11-21T04:46:33;5.90;99.90
18880;DHT22;9572;52.378;13.404;2023-11-21T04:49:00;5.90;99.90
18880;DHT22;9572;52.378;13.404;2023-11-21T04:51:28;5.90;99.90
18880;DHT22;9572;52.378;13.404;2023-11-21T04:53:55;6.00;99.90
18880;DHT22;9572;52.378;13.404;2023-11-21T04:56:23;5.90;99.90
18880;DHT22;9572;52.378;13.404;2023-11-21T04:58:53;5.80;99.90
18880;DHT22;9572;52.378;13.404;2023-11-21T05:01:20;5.80;99.90
18880;DHT22;9572;52.378;13.404;2023-11-21T05:03:47;5.80;99.90
18880;DHT22;9572;52.378;13.404;2023-11-21T05:06:14;5.80;99.90
18880;DHT22;9572;52.378;13.404;2023-11-21T05:08:41;5.80;99.90
18880;DHT22;9572;52.378;13.404;2023-11-21T05:11:09;5.80;99.90
18880;DHT22;9572;52.378;13.404;2023-11-21T05:13:37;5.70;99.90
18880;DHT22;9572;52.378;13.404;2023-11-21T05:16:06;5.70;99.90
18880;DHT22;9572;52.378;13.404;2023-11-21T05:18:33;5.60;99.90
18880;DHT22;9572;52.378;13.404;2023-11-21T05:21:00;5.60;99.90
18880;DHT22;9572;52.378;13.404;2023-11-21T05:23:27;5.60;99.90
18880;DHT22;9572;52.378;13.404;2023-11-21T05:25:54;5.60;99.90
18880;DHT22;9572;52.378;13.404;2023-11-21T05:28:24;5.60;99.90
18880;DHT22;9572;52.378;13.404;2023-11-21T05:30:53;5.70;99.90
18880;DHT22;9572;52.378;13.404;2023-11-21T05:33:30;5.60;99.90
18880;DHT22;9572;52.378;13.404;2023-11-21T05:35:58;5.60;99.90
18880;DHT22;9572;52.378;13.404;2023-11-21T05:38:25;5.60;99.90
18880;DHT22;9572;52.378;13.404;2023-11-21T05:40:53;5.60;99.90
18880;DHT22;9572;52.378;13.404;2023-11-21T05:43:24;5.50;99.90
18880;DHT22;9572;52.378;13.404;2023-11-21T05:45:55;5.50;99.90
18880;DHT22;9572;52.378;13.404;2023-11-21T05:48:29;5.50;99.90
18880;DHT22;9572;52.378;13.404;2023-11-21T05:50:57;5.60;99.90
18880;DHT22;9572;52.378;13.404;2023-11-21T05:53:24;5.60;99.90
18880;DHT22;9572;52.378;13.404;2023-11-21T05:55:54;5.60;99.90
18880;DHT22;9572;52.378;13.404;2023-11-21T05:58:23;5.60;99.90
18880;DHT22;9572;52.378;13.404;2023-11-21T06:00:50;5.50;99.90
18880;DHT22;9572;52.378;13.404;2023-11-21T06:03:17;5.60;99.90
18880;DHT22;9572;52.378;13.404;2023-11-21T06:05:51;5.60;99.90
18880;DHT22;9572;52.378;13.404;2023-11-21T06:08:26;5.50;99.90
18880;DHT22;9572;52.378;13.404;2023-11-21T06:10:53;5.50;99.90
18880;DHT22;9572;52.378;13.404;2023-11-21T06:13:24;5.50;99.90
18880;DHT22;9572;52.378;13.404;2023-11-21T06:15:53;5.40;99.90
18880;DHT22;9572;52.378;13.404;2023-11-21T06:18:24;5.40;99.90
18880;DHT22;9572;52.378;13.404;2023-11-21T06:20:57;5.50;99.90
18880;DHT22;9572;52.378;13.404;2023-11-21T06:23:26;5.50;99.90
18880;DHT22;9572;52.378;13.404;2023-11-21T06:25:53;5.50;99.90
18880;DHT22;9572;52.378;13.404;2023-11-21T06:28:24;5.50;99.90
18880;DHT22;9572;52.378;13.404;2023-11-21T06:30:53;5.40;99.90
18880;DHT22;9572;52.378;13.404;2023-11-21T06:33:24;5.40;99.90
18880;DHT22;9572;52.378;13.404;2023-11-21T06:35:58;5.50;99.90
18880;DHT22;9572;52.378;13.404;2023-11-21T06:38:25;5.50;99.90
18880;DHT22;9572;52.378;13.404;2023-11-21T06:40:55;5.40;99.90
18880;DHT22;9572;52.378;13.404;2023-11-21T06:43:24;5.50;99.90
18880;DHT22;9572;52.378;13.404;2023-11-21T06:45:52;5.50;99.90
18880;DHT22;9572;52.378;13.404;2023-11-21T06:48:20;5.50;99.90
18880;DHT22;9572;52.378;13.404;2023-11-21T06:50:47;5.50;99.90
18880;DHT22;9572;52.378;13.404;2023-11-21T06:53:19;5.50;99.90
18880;DHT22;9572;52.378;13.404;2023-11-21T06:55:46;5.50;99.90
18880;DHT22;9572;52.378;13.404;2023-11-21T06:58:13;5.50;99.90
18880;DHT22;9572;52.378;13.404;2023-11-21T07:00:44;5.60;99.90
18880;DHT22;9572;52.378;13.404;2023-11-21T07:03:14;5.60;99.90
18880;DHT22;9572;52.378;13.404;2023-11-21T07:05:41;5.50;99.90
18880;DHT22;9572;52.378;13.404;2023-11-21T07:08:08;5.60;99.90
18880;DHT22;9572;52.378;13.404;2023-11-21T07:10:38;5.60;99.90
18880;DHT22;9572;52.378;13.404;2023-11-21T07:13:07;5.50;99.90
18880;DHT22;9572;52.378;13.404;2023-11-21T07:15:38;5.50;99.90
18880;DHT22;9572;52.378;13.404;2023-11-21T07:18:05;5.50;99.90
18880;DHT22;9572;52.378;13.404;2023-11-21T07:20:34;5.40;99.90
18880;DHT22;9572;52.378;13.404;2023-11-21T07:23:05;5.40;99.90
18880;DHT22;9572;52.378;13.404;2023-11-21T07:25:33;5.30;99.90
18880;DHT22;9572;52.378;13.404;2023-11-21T07:28:10;5.40;99.90
18880;DHT22;9572;52.378;13.404;2023-11-21T07:30:37;5.40;99.90
18880;DHT22;9572;52.378;13.404;2023-11-21T07:33:04;5.40;99.90
18880;DHT22;9572;52.378;13.404;2023-11-21T07:35:33;5.40;99.90
18880;DHT22;9572;52.378;13.404;2023-11-21T07:38:03;5.40;99.90
18880;DHT22;9572;52.378;13.404;2023-11-21T07:40:34;5.40;99.90
18880;DHT22;9572;52.378;13.404;2023-11-21T07:43:09;5.40;99.90
18880;DHT22;9572;52.378;13.404;2023-11-21T07:45:36;5.30;99.90
18880;DHT22;9572;52.378;13.404;2023-11-21T07:48:04;5.30;99.90
18880;DHT22;9572;52.378;13.404;2023-11-21T07:50:33;5.30;99.90
18880;DHT22;9572;52.378;13.404;2023-11-21T07:53:04;5.30;99.90
18880;DHT22;9572;52.378;13.404;2023-11-21T07:55:33;5.30;99.90
18880;DHT22;9572;52.378;13.404;2023-11-21T07:58:09;5.30;99.90
18880;DHT22;9572;52.378;13.404;2023-11-21T08:00:38;5.30;99.90
18880;DHT22;9572;52.378;13.404;2023-11-21T08:03:05;5.30;99.90
18880;DHT22;9572;52.378;13.404;2023-11-21T08:05:33;5.30;99.90
18880;DHT22;9572;52.378;13.404;2023-11-21T08:08:04;5.40;99.90
18880;DHT22;9572;52.378;13.404;2023-11-21T08:10:33;5.30;99.90
18880;DHT22;9572;52.378;13.404;2023-11-21T08:13:09;5.30;99.90
18880;DHT22;9572;52.378;13.404;2023-11-21T08:15:40;5.30;99.90
18880;DHT22;9572;52.378;13.404;2023-11-21T08:18:10;5.30;99.90
18880;DHT22;9572;52.378;13.404;2023-11-21T08:20:38;5.30;99.90
18880;DHT22;9572;52.378;13.404;2023-11-21T08:23:05;5.20;99.90
18880;DHT22;9572;52.378;13.404;2023-11-21T08:25:32;5.20;99.90
18880;DHT22;9572;52.378;13.404;2023-11-21T08:28:09;5.20;99.90
18880;DHT22;9572;52.378;13.404;2023-11-21T08:30:36;5.20;99.90
18880;DHT22;9572;52.378;13.404;2023-11-21T08:33:04;5.10;99.90
18880;DHT22;9572;52.378;13.404;2023-11-21T08:35:34;5.10;99.90
18880;DHT22;9572;52.378;13.404;2023-11-21T08:38:02;5.10;99.90
18880;DHT22;9572;52.378;13.404;2023-11-21T08:40:31;5.10;99.90
18880;DHT22;9572;52.378;13.404;2023-11-21T08:43:08;5.20;99.90
18880;DHT22;9572;52.378;13.404;2023-11-21T08:45:37;5.20;99.90
18880;DHT22;9572;52.378;13.404;2023-11-21T08:48:04;5.30;99.90
18880;DHT22;9572;52.378;13.404;2023-11-21T08:50:34;5.30;99.90
18880;DHT22;9572;52.378;13.404;2023-11-21T08:53:04;5.30;99.90
18880;DHT22;9572;52.378;13.404;2023-11-21T08:55:34;5.30;99.90
18880;DHT22;9572;52.378;13.404;2023-11-21T08:58:03;5.30;99.90
18880;DHT22;9572;52.378;13.404;2023-11-21T09:00:39;5.30;99.90
18880;DHT22;9572;52.378;13.404;2023-11-21T09:03:07;5.30;99.90
18880;DHT22;9572;52.378;13.404;2023-11-21T09:05:37;5.20;99.90
18880;DHT22;9572;52.378;13.404;2023-11-21T09:08:04;5.20;99.90
18880;DHT22;9572;52.378;13.404;2023-11-21T09:10:36;5.10;99.90
18880;DHT22;9572;52.378;13.404;2023-11-21T09:13:05;5.20;99.90
18880;DHT22;9572;52.378;13.404;2023-11-21T09:15:50;5.20;99.90
18880;DHT22;9572;52.378;13.404;2023-11-21T09:18:17;5.30;99.90
18880;DHT22;9572;52.378;13.404;2023-11-21T09:20:44;5.40;99.90
18880;DHT22;9572;52.378;13.404;2023-11-21T09:23:12;5.40;99.90
18880;DHT22;9572;52.378;13.404;2023-11-21T09:25:38;5.40;99.90
18880;DHT22;9572;52.378;13.404;2023-11-21T09:28:05;5.40;99.90
18880;DHT22;9572;52.378;13.404;2023-11-21T09:30:33;5.30;99.90
18880;DHT22;9572;52.378;13.404;2023-11-21T09:33:03;5.20;99.90
18880;DHT22;9572;52.378;13.404;2023-11-21T09:35:30;5.00;99.90
18880;DHT22;9572;52.378;13.404;2023-11-21T09:37:57;5.00;99.90
18880;DHT22;9572;52.378;13.404;2023-11-21T09:40:26;5.00;99.90
18880;DHT22;9572;52.378;13.404;2023-11-21T09:42:55;5.00;99.90
18880;DHT22;9572;52.378;13.404;2023-11-21T09:45:25;5.00;99.90
18880;DHT22;9572;52.378;13.404;2023-11-21T09:47:54;5.00;99.90
18880;DHT22;9572;52.378;13.404;2023-11-21T09:50:23;5.10;99.90
18880;DHT22;9572;52.378;13.404;2023-11-21T09:52:57;5.00;99.90
18880;DHT22;9572;52.378;13.404;2023-11-21T09:55:27;4.90;99.90
18880;DHT22;9572;52.378;13.404;2023-11-21T09:57:56;4.90;99.90
18880;DHT22;9572;52.378;13.404;2023-11-21T10:00:23;5.00;99.90
18880;DHT22;9572;52.378;13.404;2023-11-21T10:02:51;5.00;99.90
18880;DHT22;9572;52.378;13.404;2023-11-21T10:05:19;5.10;99.90
18880;DHT22;9572;52.378;13.404;2023-11-21T10:07:50;5.20;99.90
18880;DHT22;9572;52.378;13.404;2023-11-21T10:10:19;5.30;99.90
18880;DHT22;9572;52.378;13.404;2023-11-21T10:12:50;5.20;99.90
18880;DHT22;9572;52.378;13.404;2023-11-21T10:15:21;5.30;99.90
18880;DHT22;9572;52.378;13.404;2023-11-21T10:17:52;5.30;99.90
18880;DHT22;9572;52.378;13.404;2023-11-21T10:20:20;5.30;99.90
18880;DHT22;9572;52.378;13.404;2023-11-21T10:22:49;5.30;99.90
18880;DHT22;9572;52.378;13.404;2023-11-21T10:25:16;5.30;99.90
18880;DHT22;9572;52.378;13.404;2023-11-21T10:27:47;5.30;99.90
18880;DHT22;9572;52.378;13.404;2023-11-21T10:30:16;5.20;99.90
18880;DHT22;9572;52.378;13.404;2023-11-21T10:32:44;5.20;99.90
18880;DHT22;9572;52.378;13.404;2023-11-21T10:35:12;5.30;99.90
18880;DHT22;9572;52.378;13.404;2023-11-21T10:37:39;5.30;99.90
18880;DHT22;9572;52.378;13.404;2023-11-21T10:40:10;5.30;99.90
18880;DHT22;9572;52.378;13.404;2023-11-21T10:42:38;5.20;99.90
18880;DHT22;9572;52.378;13.404;2023-11-21T10:45:06;5.20;99.90
18880;DHT22;9572;52.378;13.404;2023-11-21T10:47:38;5.30;99.90
18880;DHT22;9572;52.378;13.404;2023-11-21T10:50:05;5.30;99.90
18880;DHT22;9572;52.378;13.404;2023-11-21T10:52:37;5.20;99.90
18880;DHT22;9572;52.378;13.404;2023-11-21T10:55:17;5.10;99.90
18880;DHT22;9572;52.378;13.404;2023-11-21T10:57:48;5.10;99.90
18880;DHT22;9572;52.378;13.404;2023-11-21T11:00:16;5.20;99.90
18880;DHT22;9572;52.378;13.404;2023-11-21T11:02:47;5.20;99.90
18880;DHT22;9572;52.378;13.404;2023-11-21T11:05:16;5.10;99.90
18880;DHT22;9572;52.378;13.404;2023-11-21T11:07:44;5.00;99.90
18880;DHT22;9572;52.378;13.404;2023-11-21T11:10:19;5.10;99.90
18880;DHT22;9572;52.378;13.404;2023-11-21T11:12:48;5.00;99.90
18880;DHT22;9572;52.378;13.404;2023-11-21T11:15:16;5.00;99.90
18880;DHT22;9572;52.378;13.404;2023-11-21T11:17:43;5.10;99.90
18880;DHT22;9572;52.378;13.404;2023-11-21T11:20:14;5.10;99.90
18880;DHT22;9572;52.378;13.404;2023-11-21T11:22:46;5.10;99.90
18880;DHT22;9572;52.378;13.404;2023-11-21T11:25:28;5.20;99.90
18880;DHT22;9572;52.378;13.404;2023-11-21T11:28:03;5.10;99.90
18880;DHT22;9572;52.378;13.404;2023-11-21T11:30:40;5.00;99.90
18880;DHT22;9572;52.378;13.404;2023-11-21T11:33:21;4.90;99.90
18880;DHT22;9572;52.378;13.404;2023-11-21T11:35:56;4.90;99.90
18880;DHT22;9572;52.378;13.404;2023-11-21T11:38:31;4.90;99.90
18880;DHT22;9572;52.378;13.404;2023-11-21T11:41:02;4.90;99.90
18880;DHT22;9572;52.378;13.404;2023-11-21T11:43:34;4.90;99.90
18880;DHT22;9572;52.378;13.404;2023-11-21T11:46:10;4.90;99.90
18880;DHT22;9572;52.378;13.404;2023-11-21T11:48:48;5.00;99.90
18880;DHT22;9572;52.378;13.404;2023-11-21T11:51:37;5.00;99.90
18880;DHT22;9572;52.378;13.404;2023-11-21T11:54:05;5.00;99.90
18880;DHT22;9572;52.378;13.404;2023-11-21T11:56:39;5.00;99.90
18880;DHT22;9572;52.378;13.404;2023-11-21T11:59:14;4.90;99.90
18880;DHT22;9572;52.378;13.404;2023-11-21T12:01:48;4.90;99.90
18880;DHT22;9572;52.378;13.404;2023-11-21T12:04:26;4.90;99.90
18880;DHT22;9572;52.378;13.404;2023-11-21T12:07:01;4.90;99.90
18880;DHT22;9572;52.378;13.404;2023-11-21T12:09:31;4.80;99.90
18880;DHT22;9572;52.378;13.404;2023-11-21T12:11:58;4.80;99.90
18880;DHT22;9572;52.378;13.404;2023-11-21T12:14:27;4.80;99.90
18880;DHT22;9572;52.378;13.404;2023-11-21T12:16:54;4.70;99.90
18880;DHT22;9572;52.378;13.404;2023-11-21T12:19:21;4.70;99.90
18880;DHT22;9572;52.378;13.404;2023-11-21T12:21:50;4.60;99.90
18880;DHT22;9572;52.378;13.404;2023-11-21T12:24:17;4.50;99.90
18880;DHT22;9572;52.378;13.404;2023-11-21T12:26:44;4.40;99.90
18880;DHT22;9572;52.378;13.404;2023-11-21T12:29:12;4.50;99.90
18880;DHT22;9572;52.378;13.404;2023-11-21T12:31:40;4.50;99.90
18880;DHT22;9572;52.378;13.404;2023-11-21T12:34:07;4.50;99.90
18880;DHT22;9572;52.378;13.404;2023-11-21T12:36:37;4.50;99.90
18880;DHT22;9572;52.378;13.404;2023-11-21T12:39:04;4.50;99.90
18880;DHT22;9572;52.378;13.404;2023-11-21T12:41:31;4.50;99.90
18880;DHT22;9572;52.378;13.404;2023-11-21T12:43:58;4.50;99.90
18880;DHT22;9572;52.378;13.404;2023-11-21T12:46:25;4.50;99.90
18880;DHT22;9572;52.378;13.404;2023-11-21T12:48:58;4.60;99.90
18880;DHT22;9572;52.378;13.404;2023-11-21T12:51:25;4.50;99.90
18880;DHT22;9572;52.378;13.404;2023-11-21T12:53:52;4.50;99.90
18880;DHT22;9572;52.378;13.404;2023-11-21T12:56:21;4.60;99.90
18880;DHT22;9572;52.378;13.404;2023-11-21T12:58:49;4.70;99.90
18880;DHT22;9572;52.378;13.404;2023-11-21T13:01:17;4.60;99.90
18880;DHT22;9572;52.378;13.404;2023-11-21T13:03:48;4.60;99.90
18880;DHT22;9572;52.378;13.404;2023-11-21T13:06:19;4.60;99.90
18880;DHT22;9572;52.378;13.404;2023-11-21T13:08:50;4.60;99.90
18880;DHT22;9572;52.378;13.404;2023-11-21T13:11:17;4.50;99.90
18880;DHT22;9572;52.378;13.404;2023-11-21T13:13:44;4.50;99.90
18880;DHT22;9572;52.378;13.404;2023-11-21T13:16:12;4.40;99.90
18880;DHT22;9572;52.378;13.404;2023-11-21T13:18:41;4.50;99.90
18880;DHT22;9572;52.378;13.404;2023-11-21T13:21:09;4.50;99.90
18880;DHT22;9572;52.378;13.404;2023-11-21T13:23:41;4.60;99.90
18880;DHT22;9572;52.378;13.404;2023-11-21T13:26:11;4.60;99.90
18880;DHT22;9572;52.378;13.404;2023-11-21T13:28:40;4.50;99.90
18880;DHT22;9572;52.378;13.404;2023-11-21T13:31:11;4.50;99.90
18880;DHT22;9572;52.378;13.404;2023-11-21T13:33:47;4.40;99.90
18880;DHT22;9572;52.378;13.404;2023-11-21T13:36:20;4.40;99.90
18880;DHT22;9572;52.378;13.404;2023-11-21T13:38:50;4.30;99.90
18880;DHT22;9572;52.378;13.404;2023-11-21T13:41:18;4.30;99.90
18880;DHT22;9572;52.378;13.404;2023-11-21T13:43:45;4.30;99.90
18880;DHT22;9572;52.378;13.404;2023-11-21T13:46:19;4.20;99.90
18880;DHT22;9572;52.378;13.404;2023-11-21T13:48:49;4.20;99.90
18880;DHT22;9572;52.378;13.404;2023-11-21T13:51:21;4.20;99.90
18880;DHT22;9572;52.378;13.404;2023-11-21T13:53:58;4.10;99.90
18880;DHT22;9572;52.378;13.404;2023-11-21T13:56:26;4.10;99.90
18880;DHT22;9572;52.378;13.404;2023-11-21T13:58:54;4.10;99.90
18880;DHT22;9572;52.378;13.404;2023-11-21T14:01:23;4.10;99.90
18880;DHT22;9572;52.378;13.404;2023-11-21T14:04:13;4.10;99.90
18880;DHT22;9572;52.378;13.404;2023-11-21T14:06:46;4.00;99.90
18880;DHT22;9572;52.378;13.404;2023-11-21T14:09:16;3.90;99.90
18880;DHT22;9572;52.378;13.404;2023-11-21T14:11:49;3.90;99.90
18880;DHT22;9572;52.378;13.404;2023-11-21T14:14:18;3.90;99.90
18880;DHT22;9572;52.378;13.404;2023-11-21T14:16:45;3.90;99.90
18880;DHT22;9572;52.378;13.404;2023-11-21T14:19:12;3.90;99.90
18880;DHT22;9572;52.378;13.404;2023-11-21T14:21:43;3.80;99.90
18880;DHT22;9572;52.378;13.404;2023-11-21T14:24:10;3.70;99.90
18880;DHT22;9572;52.378;13.404;2023-11-21T14:26:40;3.70;99.90
18880;DHT22;9572;52.378;13.404;2023-11-21T14:29:08;3.60;99.90
18880;DHT22;9572;52.378;13.404;2023-11-21T14:31:38;3.70;99.90
18880;DHT22;9572;52.378;13.404;2023-11-21T14:34:06;3.60;99.90
18880;DHT22;9572;52.378;13.404;2023-11-21T14:36:33;3.70;99.90
18880;DHT22;9572;52.378;13.404;2023-11-21T14:39:02;3.70;99.90
18880;DHT22;9572;52.378;13.404;2023-11-21T14:41:32;3.70;99.90
18880;DHT22;9572;52.378;13.404;2023-11-21T14:44:03;3.60;99.90
18880;DHT22;9572;52.378;13.404;2023-11-21T14:46:37;3.50;99.90
18880;DHT22;9572;52.378;13.404;2023-11-21T14:49:05;3.50;99.90
18880;DHT22;9572;52.378;13.404;2023-11-21T14:51:45;3.50;99.90
18880;DHT22;9572;52.378;13.404;2023-11-21T14:54:26;3.50;99.90
18880;DHT22;9572;52.378;13.404;2023-11-21T14:57:06;3.50;99.90
18880;DHT22;9572;52.378;13.404;2023-11-21T14:59:42;3.40;99.90
18880;DHT22;9572;52.378;13.404;2023-11-21T15:02:10;3.40;99.90
18880;DHT22;9572;52.378;13.404;2023-11-21T15:04:46;3.30;99.90
18880;DHT22;9572;52.378;13.404;2023-11-21T15:07:14;3.30;99.90
18880;DHT22;9572;52.378;13.404;2023-11-21T15:09:40;3.30;99.90
18880;DHT22;9572;52.378;13.404;2023-11-21T15:12:09;3.20;99.90
18880;DHT22;9572;52.378;13.404;2023-11-21T15:14:42;3.10;99.90
18880;DHT22;9572;52.378;13.404;2023-11-21T15:17:11;3.10;99.90
18880;DHT22;9572;52.378;13.404;2023-11-21T15:19:42;3.20;99.90
18880;DHT22;9572;52.378;13.404;2023-11-21T15:22:10;3.20;99.90
18880;DHT22;9572;52.378;13.404;2023-11-21T15:24:40;3.10;99.90
18880;DHT22;9572;52.378;13.404;2023-11-21T15:27:11;3.00;99.90
18880;DHT22;9572;52.378;13.404;2023-11-21T15:29:38;3.00;99.90
18880;DHT22;9572;52.378;13.404;2023-11-21T15:32:08;3.00;99.90
18880;DHT22;9572;52.378;13.404;2023-11-21T15:34:35;3.00;99.90
18880;DHT22;9572;52.378;13.404;2023-11-21T15:37:03;2.90;99.90
18880;DHT22;9572;52.378;13.404;2023-11-21T15:39:31;3.00;99.90
18880;DHT22;9572;52.378;13.404;2023-11-21T15:41:59;3.00;99.90
18880;DHT22;9572;52.378;13.404;2023-11-21T15:44:26;3.00;99.90
18880;DHT22;9572;52.378;13.404;2023-11-21T15:46:54;3.00;99.90
18880;DHT22;9572;52.378;13.404;2023-11-21T15:49:22;2.90;99.90
18880;DHT22;9572;52.378;13.404;2023-11-21T15:51:50;2.90;99.90
18880;DHT22;9572;52.378;13.404;2023-11-21T15:54:21;3.00;99.90
18880;DHT22;9572;52.378;13.404;2023-11-21T15:56:49;2.90;99.90